Time;durP1;ratioP1;P1;durP2;ratioP2;P2;SDS_P1;SDS_P2;PMS_P1;PMS_P2;Temp;Humidity;BMP_temperature;BMP_pressure;BME280_temperature;BME280_humidity;BME280_pressure;Samples;Min_cycle;Max_cycle;Signal;HPM_P1;HPM_P2
2021/06/26 00:07:16;;;;;;;7.88;3.42;;;15.60;99.90;;;;;;20908478;28;20058;-50
2021/06/26 00:17:17;;;;;;;8.63;3.42;;;15.60;99.90;;;;;;20897578;28;20045;-51
2021/06/26 00:27:18;;;;;;;10.23;3.90;;;15.60;99.90;;;;;;20904813;28;20045;-50
2021/06/26 00:37:19;;;;;;;9.48;3.95;;;15.50;99.90;;;;;;20905789;28;20040;-50
2021/06/26 00:47:20;;;;;;;10.25;3.63;;;15.50;99.90;;;;;;20898763;28;20090;-50
2021/06/26 00:57:22;;;;;;;6.93;3.25;;;15.50;99.90;;;;;;20904150;28;20244;-50
2021/06/26 01:07:23;;;;;;;10.40;4.93;;;15.60;99.90;;;;;;20899474;28;20057;-50
2021/06/26 01:17:24;;;;;;;8.05;3.88;;;15.80;99.90;;;;;;20901769;28;20041;-50
2021/06/26 01:27:26;;;;;;;12.90;5.82;;;15.80;99.90;;;;;;20901864;28;20593;-51
2021/06/26 01:37:27;;;;;;;14.43;5.95;;;15.90;99.90;;;;;;20900023;28;20296;-51
2021/06/26 01:47:28;;;;;;;14.07;5.38;;;15.90;99.90;;;;;;20899842;28;20044;-50
2021/06/26 01:57:30;;;;;;;12.32;5.68;;;16.00;99.90;;;;;;20900311;28;20043;-51
2021/06/26 02:07:31;;;;;;;13.63;5.50;;;16.00;99.90;;;;;;20908067;28;20045;-50
2021/06/26 02:17:32;;;;;;;11.23;5.35;;;15.90;99.90;;;;;;20888584;28;20062;-51
2021/06/26 02:27:34;;;;;;;12.40;5.47;;;15.90;99.90;;;;;;20891559;28;20055;-50
2021/06/26 02:37:35;;;;;;;13.50;6.07;;;16.00;99.90;;;;;;20923649;28;20053;-50
2021/06/26 02:47:37;;;;;;;15.70;6.00;;;16.00;99.90;;;;;;20915178;28;20041;-51
2021/06/26 02:57:38;;;;;;;17.95;6.18;;;16.00;99.90;;;;;;20926015;28;20134;-51
2021/06/26 03:07:47;;;;;;;21.13;7.28;;;16.10;99.90;;;;;;20924051;28;20061;-51
2021/06/26 03:17:48;;;;;;;12.88;6.07;;;16.00;99.90;;;;;;20917658;28;20114;-51
2021/06/26 03:27:49;;;;;;;11.02;6.38;;;16.10;99.90;;;;;;20927228;28;20048;-50
2021/06/26 03:37:50;;;;;;;17.42;7.78;;;16.10;99.90;;;;;;20921696;28;20059;-51
2021/06/26 03:47:51;;;;;;;14.57;5.70;;;16.10;99.90;;;;;;20907900;28;20049;-51
2021/06/26 03:57:53;;;;;;;17.60;6.72;;;16.10;99.90;;;;;;20913778;28;20091;-48
2021/06/26 04:07:54;;;;;;;10.63;5.50;;;16.20;99.90;;;;;;20906900;28;20439;-48
2021/06/26 04:17:55;;;;;;;17.05;6.68;;;16.20;99.90;;;;;;20895684;28;20391;-48
2021/06/26 04:28:03;;;;;;;16.67;6.85;;;16.20;99.90;;;;;;20908174;28;20132;-48
2021/06/26 04:38:04;;;;;;;17.42;6.88;;;16.20;99.90;;;;;;20902939;28;20071;-48
2021/06/26 04:48:06;;;;;;;21.70;7.60;;;16.20;99.90;;;;;;20909107;28;20055;-48
2021/06/26 04:58:07;;;;;;;22.77;7.15;;;16.20;99.90;;;;;;20903700;28;20106;-50
2021/06/26 05:08:08;;;;;;;21.05;7.88;;;16.30;99.90;;;;;;20899488;28;20057;-50
2021/06/26 05:18:10;;;;;;;17.85;7.78;;;16.40;99.90;;;;;;20897624;28;20123;-51
2021/06/26 05:28:12;;;;;;;18.58;7.72;;;16.50;99.90;;;;;;20901021;28;20076;-50
2021/06/26 05:38:13;;;;;;;18.15;8.57;;;16.50;99.90;;;;;;20896767;28;20091;-50
2021/06/26 05:48:14;;;;;;;15.60;6.43;;;16.50;99.90;;;;;;20891721;28;20072;-50
2021/06/26 05:58:15;;;;;;;22.75;7.95;;;16.80;99.90;;;;;;20895711;28;20049;-48
2021/06/26 06:08:18;;;;;;;19.67;7.00;;;16.90;99.90;;;;;;20879261;28;20053;-48
2021/06/26 06:18:20;;;;;;;13.00;6.25;;;17.10;99.90;;;;;;20895205;28;20045;-49
2021/06/26 06:28:21;;;;;;;16.70;6.10;;;17.10;99.90;;;;;;20893694;28;20061;-48
2021/06/26 06:38:23;;;;;;;13.57;6.03;;;17.20;99.90;;;;;;20889974;28;20037;-49
2021/06/26 06:48:24;;;;;;;11.82;5.30;;;17.20;99.90;;;;;;20882562;28;20142;-49
2021/06/26 06:58:25;;;;;;;13.95;6.18;;;17.40;99.90;;;;;;20882837;28;20033;-49
2021/06/26 07:08:27;;;;;;;15.23;7.10;;;17.60;99.90;;;;;;20904086;28;20508;-49
2021/06/26 07:18:28;;;;;;;13.88;5.68;;;17.70;99.90;;;;;;20902590;28;20040;-49
2021/06/26 07:28:29;;;;;;;15.00;6.07;;;17.90;99.90;;;;;;20916118;28;20045;-49
2021/06/26 07:38:30;;;;;;;11.50;4.13;;;18.30;99.90;;;;;;20919885;28;20037;-49
2021/06/26 07:48:31;;;;;;;9.02;3.78;;;18.60;99.90;;;;;;20915425;28;20388;-49
2021/06/26 07:58:33;;;;;;;7.45;3.25;;;19.00;99.90;;;;;;20914370;28;20114;-49
2021/06/26 08:08:34;;;;;;;8.27;3.30;;;19.40;99.90;;;;;;20902237;28;20053;-49
2021/06/26 08:18:36;;;;;;;12.15;4.18;;;19.50;99.90;;;;;;20907815;28;20049;-49
2021/06/26 08:28:37;;;;;;;6.18;3.35;;;19.60;99.90;;;;;;20896765;28;20048;-49
2021/06/26 08:38:39;;;;;;;9.93;4.65;;;19.60;99.90;;;;;;20904911;28;20036;-49
2021/06/26 08:48:41;;;;;;;11.73;4.60;;;19.70;99.90;;;;;;20899366;28;20051;-49
2021/06/26 08:58:42;;;;;;;13.32;4.57;;;19.80;99.90;;;;;;20890296;28;20045;-49
2021/06/26 09:08:51;;;;;;;9.25;4.88;;;20.10;99.90;;;;;;20896805;28;20053;-49
2021/06/26 09:18:54;;;;;;;9.48;4.60;;;20.60;99.90;;;;;;20897521;28;20033;-49
2021/06/26 09:29:06;;;;;;;10.60;5.78;;;20.80;99.90;;;;;;20904885;28;20103;-49
2021/06/26 09:39:08;;;;;;;11.23;4.82;;;21.30;99.90;;;;;;20887241;28;20040;-49
2021/06/26 09:49:09;;;;;;;12.70;4.53;;;21.50;99.90;;;;;;20892910;28;20033;-49
2021/06/26 09:59:14;;;;;;;9.85;4.07;;;22.20;99.90;;;;;;20892323;28;20041;-49
2021/06/26 10:09:15;;;;;;;9.75;4.60;;;22.70;99.90;;;;;;20862656;28;20431;-49
2021/06/26 10:19:17;;;;;;;9.77;3.75;;;22.80;99.90;;;;;;20634976;28;20104;-50
2021/06/26 10:29:28;;;;;;;8.32;3.90;;;22.80;99.90;;;;;;20633332;28;20068;-51
2021/06/26 10:39:30;;;;;;;9.13;4.25;;;22.90;99.90;;;;;;20621070;28;20091;-50
2021/06/26 10:49:32;;;;;;;11.45;4.72;;;23.00;99.90;;;;;;20625551;28;20071;-50
2021/06/26 10:59:34;;;;;;;6.90;3.67;;;23.90;99.90;;;;;;20842792;28;20072;-50
2021/06/26 11:09:43;;;;;;;9.18;4.50;;;23.70;99.90;;;;;;20914827;28;20088;-50
2021/06/26 11:19:45;;;;;;;7.63;4.15;;;23.30;99.90;;;;;;20914292;28;20040;-50
2021/06/26 11:29:50;;;;;;;8.90;4.72;;;23.90;99.90;;;;;;20912104;28;20045;-50
2021/06/26 11:39:51;;;;;;;6.50;3.20;;;24.10;99.90;;;;;;20917962;28;20067;-50
2021/06/26 11:49:53;;;;;;;6.22;3.30;;;24.50;99.90;;;;;;20918906;28;20056;-50
2021/06/26 11:59:54;;;;;;;5.07;3.28;;;24.10;99.90;;;;;;20911469;28;20052;-50
2021/06/26 12:09:57;;;;;;;5.15;3.22;;;24.00;99.90;;;;;;20678987;28;20087;-50
2021/06/26 12:20:04;;;;;;;7.95;3.75;;;24.30;99.90;;;;;;20657003;28;20047;-51
2021/06/26 12:30:08;;;;;;;4.97;3.08;;;24.40;99.90;;;;;;20826775;28;20057;-51
2021/06/26 12:40:16;;;;;;;6.75;3.10;;;24.00;99.90;;;;;;20815048;28;20144;-51
2021/06/26 12:50:17;;;;;;;;;;;24.50;99.90;;;;;;20818652;28;20064;-51
2021/06/26 13:00:20;;;;;;;7.00;3.17;;;25.10;99.90;;;;;;20726972;28;20833;-51
2021/06/26 13:10:21;;;;;;;6.22;3.28;;;24.60;99.90;;;;;;20750766;28;20057;-51
2021/06/26 13:20:23;;;;;;;9.80;3.33;;;23.80;99.90;;;;;;20871912;28;20095;-51
2021/06/26 13:30:26;;;;;;;6.15;3.47;;;23.10;99.90;;;;;;20918312;28;20052;-51
2021/06/26 13:40:27;;;;;;;7.40;3.17;;;23.00;99.90;;;;;;20912346;28;20040;-51
2021/06/26 13:50:28;;;;;;;5.18;2.83;;;23.20;99.90;;;;;;20924149;28;20102;-51
2021/06/26 14:00:30;;;;;;;6.20;3.00;;;24.00;99.90;;;;;;20889566;28;20036;-51
2021/06/26 14:10:32;;;;;;;6.10;3.38;;;24.20;99.90;;;;;;20917059;28;20095;-51
2021/06/26 14:20:34;;;;;;;5.47;2.55;;;24.20;99.90;;;;;;20908139;28;20051;-51
2021/06/26 14:30:35;;;;;;;6.03;3.22;;;23.90;99.90;;;;;;20855859;28;20111;-51
2021/06/26 14:40:36;;;;;;;6.00;3.45;;;24.00;99.90;;;;;;20838757;28;20041;-51
2021/06/26 14:50:38;;;;;;;8.70;2.72;;;24.00;99.90;;;;;;20875721;28;20063;-51
2021/06/26 15:00:39;;;;;;;5.63;3.17;;;23.80;99.90;;;;;;20905260;28;20052;-51
2021/06/26 15:10:40;;;;;;;5.60;2.78;;;24.20;99.90;;;;;;20900645;28;20068;-51
2021/06/26 15:20:42;;;;;;;6.53;3.13;;;24.00;99.90;;;;;;20848490;28;20045;-51
2021/06/26 15:30:43;;;;;;;6.55;3.10;;;23.80;99.90;;;;;;20822259;28;20044;-50
2021/06/26 15:40:44;;;;;;;5.43;2.25;;;23.60;99.90;;;;;;20832275;28;20041;-50
2021/06/26 15:50:50;;;;;;;4.50;2.70;;;23.60;99.90;;;;;;20881322;28;20048;-50
2021/06/26 16:00:52;;;;;;;7.60;3.45;;;23.40;99.90;;;;;;20910510;28;20044;-51
2021/06/26 16:10:54;;;;;;;6.20;3.17;;;23.50;99.90;;;;;;20925527;28;20040;-50
2021/06/26 16:20:56;;;;;;;8.35;3.72;;;23.50;99.90;;;;;;20911417;28;20131;-50
2021/06/26 16:30:57;;;;;;;5.55;3.53;;;23.90;99.90;;;;;;20929352;28;20064;-51
2021/06/26 16:41:01;;;;;;;5.78;2.80;;;24.20;99.90;;;;;;20893308;28;20052;-51
2021/06/26 16:51:04;;;;;;;6.75;2.72;;;24.00;99.90;;;;;;20905318;28;20040;-51
2021/06/26 17:01:11;;;;;;;6.30;3.30;;;23.60;99.90;;;;;;20893235;28;20040;-50
2021/06/26 17:11:12;;;;;;;5.87;3.50;;;23.50;99.90;;;;;;20891958;28;20179;-50
2021/06/26 17:21:14;;;;;;;6.35;2.90;;;23.30;99.90;;;;;;20886405;28;20430;-50
2021/06/26 17:31:15;;;;;;;5.65;3.05;;;22.90;99.90;;;;;;20902457;28;20045;-49
2021/06/26 17:41:16;;;;;;;7.82;3.88;;;22.70;99.90;;;;;;20898691;28;20591;-49
2021/06/26 17:51:20;;;;;;;6.22;3.10;;;22.50;99.90;;;;;;20906087;28;20500;-49
2021/06/26 18:01:21;;;;;;;5.72;2.40;;;22.40;99.90;;;;;;20909536;28;20228;-49
2021/06/26 18:11:25;;;;;;;6.50;3.30;;;22.20;99.90;;;;;;20910513;28;20056;-49
2021/06/26 18:21:26;;;;;;;6.82;3.10;;;22.10;99.90;;;;;;20894859;28;20040;-49
2021/06/26 18:31:27;;;;;;;6.78;3.22;;;22.20;99.90;;;;;;20898327;28;20108;-49
2021/06/26 18:41:29;;;;;;;8.52;4.07;;;21.90;99.90;;;;;;20871710;28;20040;-49
2021/06/26 18:51:32;;;;;;;7.82;3.45;;;21.80;99.90;;;;;;20885572;28;20045;-49
2021/06/26 19:01:33;;;;;;;7.45;3.75;;;21.70;99.90;;;;;;20868892;28;20044;-49
2021/06/26 19:11:36;;;;;;;6.82;3.42;;;21.50;99.90;;;;;;20875320;28;20393;-49
2021/06/26 19:21:37;;;;;;;6.00;2.55;;;21.40;99.90;;;;;;20905409;28;20217;-49
2021/06/26 19:31:40;;;;;;;6.10;3.15;;;21.30;99.90;;;;;;20909829;28;20047;-50
2021/06/26 19:41:41;;;;;;;8.10;3.38;;;21.20;99.90;;;;;;20901772;28;20273;-49
2021/06/26 19:51:42;;;;;;;8.52;3.67;;;21.10;99.90;;;;;;20888474;28;20041;-49
2021/06/26 20:01:44;;;;;;;9.18;3.80;;;21.00;99.90;;;;;;20892740;28;20329;-49
2021/06/26 20:11:45;;;;;;;8.68;3.53;;;20.90;99.90;;;;;;20883330;28;20063;-49
2021/06/26 20:21:47;;;;;;;7.10;3.88;;;20.80;99.90;;;;;;20894138;28;20040;-49
2021/06/26 20:31:48;;;;;;;8.55;3.80;;;20.70;99.90;;;;;;20910490;28;20063;-49
2021/06/26 20:41:49;;;;;;;8.75;3.60;;;20.50;99.90;;;;;;20893104;28;20045;-49
2021/06/26 20:51:50;;;;;;;8.15;3.47;;;20.40;99.90;;;;;;20897807;28;20085;-49
2021/06/26 21:01:51;;;;;;;9.25;3.33;;;20.40;99.90;;;;;;20904237;28;20037;-49
2021/06/26 21:11:52;;;;;;;10.45;4.50;;;20.20;99.90;;;;;;20893698;28;20237;-49
2021/06/26 21:21:54;;;;;;;8.00;3.80;;;20.00;99.90;;;;;;20904885;28;20040;-49
2021/06/26 21:31:55;;;;;;;9.23;3.92;;;20.00;99.90;;;;;;20895156;28;21170;-48
2021/06/26 21:41:56;;;;;;;11.45;4.22;;;19.80;99.90;;;;;;20879451;28;20041;-48
2021/06/26 21:51:57;;;;;;;9.90;4.43;;;19.70;99.90;;;;;;20900496;28;20051;-48
2021/06/26 22:01:58;;;;;;;14.82;4.55;;;19.60;99.90;;;;;;20891796;28;20385;-48
2021/06/26 22:12:00;;;;;;;10.65;5.28;;;19.50;99.90;;;;;;20891477;28;20051;-48
2021/06/26 22:22:02;;;;;;;10.93;5.88;;;19.40;99.90;;;;;;20904079;28;20048;-48
2021/06/26 22:32:04;;;;;;;12.40;6.15;;;19.40;99.90;;;;;;20892483;28;20448;-48
2021/06/26 22:42:05;;;;;;;12.82;5.97;;;19.30;99.90;;;;;;20886584;28;20047;-48
2021/06/26 22:52:07;;;;;;;13.38;5.63;;;19.10;99.90;;;;;;20901032;28;20570;-48
2021/06/26 23:02:08;;;;;;;14.00;5.68;;;19.00;99.90;;;;;;20907557;28;20053;-48
2021/06/26 23:12:09;;;;;;;13.45;6.10;;;18.90;99.90;;;;;;20913719;28;20053;-48
2021/06/26 23:22:10;;;;;;;15.25;6.18;;;18.80;99.90;;;;;;20903170;28;20055;-48
2021/06/26 23:32:12;;;;;;;15.68;7.05;;;18.90;99.90;;;;;;20907910;28;20065;-48
2021/06/26 23:42:13;;;;;;;20.38;6.13;;;18.80;99.90;;;;;;20913830;28;20037;-48
2021/06/26 23:52:14;;;;;;;14.82;6.45;;;18.80;99.90;;;;;;20907347;28;20041;-48
